createdAt,value
2023-05-04T00:00:27.706Z,29.94
2023-05-04T00:01:27.764Z,29.95
2023-05-04T00:02:27.948Z,29.96
2023-05-04T00:03:27.947Z,30.03
2023-05-04T00:04:27.943Z,30.10
2023-05-04T00:05:27.961Z,30.01
2023-05-04T00:06:28.000Z,30.00
2023-05-04T00:07:28.045Z,30.00
2023-05-04T00:08:28.093Z,29.99
2023-05-04T00:09:28.161Z,29.99
2023-05-04T00:10:28.200Z,29.95
2023-05-04T00:11:28.252Z,30.00
2023-05-04T00:12:28.334Z,30.01
2023-05-04T00:13:28.369Z,30.01
2023-05-04T00:14:28.407Z,30.02
2023-05-04T00:15:28.461Z,30.10
2023-05-04T00:16:28.582Z,30.10
2023-05-04T00:17:28.591Z,30.13
2023-05-04T00:18:28.578Z,30.12
2023-05-04T00:19:28.676Z,30.11
2023-05-04T00:20:28.697Z,30.06
2023-05-04T00:21:28.768Z,30.10
2023-05-04T00:22:28.791Z,30.16
2023-05-04T00:23:28.841Z,30.16
2023-05-04T00:24:28.884Z,30.16
2023-05-04T00:25:28.956Z,30.16
2023-05-04T00:26:28.975Z,30.15
2023-05-04T00:27:29.032Z,30.16
2023-05-04T00:28:29.072Z,30.16
2023-05-04T00:29:29.195Z,30.15
2023-05-04T00:30:29.174Z,30.16
2023-05-04T00:31:29.278Z,30.16
2023-05-04T00:32:29.273Z,30.14
2023-05-04T00:33:29.320Z,30.15
2023-05-04T00:34:29.413Z,30.13
2023-05-04T00:35:29.437Z,30.12
2023-05-04T00:36:29.484Z,30.10
2023-05-04T00:37:29.539Z,30.12
2023-05-04T00:38:29.593Z,30.14
2023-05-04T00:39:29.676Z,30.13
2023-05-04T00:40:29.661Z,30.11
2023-05-04T00:41:29.749Z,30.12
2023-05-04T00:42:29.816Z,30.12
2023-05-04T00:43:29.855Z,30.15
2023-05-04T00:44:29.890Z,30.13
2023-05-04T00:45:29.926Z,30.13
2023-05-04T00:46:30.018Z,30.10
2023-05-04T00:47:30.116Z,30.11
2023-05-04T00:48:30.075Z,30.09
2023-05-04T00:49:30.145Z,30.07
2023-05-04T00:50:30.194Z,30.00
2023-05-04T00:51:30.247Z,30.03
2023-05-04T00:52:30.266Z,30.01
2023-05-04T00:53:30.322Z,30.02
2023-05-04T00:54:30.318Z,30.00
2023-05-04T00:55:30.363Z,29.97
2023-05-04T00:56:30.398Z,29.95
2023-05-04T00:57:30.436Z,29.96
2023-05-04T00:58:30.478Z,29.95
2023-05-04T00:59:30.515Z,29.94
2023-05-04T01:00:30.566Z,29.90
2023-05-04T01:01:30.747Z,29.89
2023-05-04T01:02:30.641Z,29.85
2023-05-04T01:03:30.727Z,29.86
2023-05-04T01:04:30.688Z,29.85
2023-05-04T01:05:30.730Z,29.84
2023-05-04T01:06:30.751Z,29.81
2023-05-04T01:07:30.735Z,29.81
2023-05-04T01:08:30.785Z,29.79
2023-05-04T01:09:30.792Z,29.81
2023-05-04T01:10:30.816Z,29.80
2023-05-04T01:11:30.813Z,29.78
2023-05-04T01:12:30.881Z,29.73
2023-05-04T01:13:30.844Z,29.80
2023-05-04T01:14:30.892Z,29.73
2023-05-04T01:15:30.918Z,29.72
2023-05-04T01:16:30.951Z,29.71
2023-05-04T01:17:30.931Z,29.69
2023-05-04T01:18:30.920Z,29.74
2023-05-04T01:19:30.952Z,29.71
2023-05-04T01:20:30.968Z,29.69
2023-05-04T01:21:31.022Z,29.68
2023-05-04T01:22:30.989Z,29.68
2023-05-04T01:23:31.021Z,29.66
2023-05-04T01:24:31.007Z,29.67
2023-05-04T01:25:31.040Z,29.68
2023-05-04T01:26:31.056Z,29.65
2023-05-04T01:27:31.041Z,29.66
2023-05-04T01:28:31.059Z,29.67
2023-05-04T01:29:31.068Z,29.64
2023-05-04T01:30:31.102Z,29.65
2023-05-04T01:31:31.168Z,29.63
2023-05-04T01:32:31.108Z,29.50
2023-05-04T01:33:31.125Z,29.40
2023-05-04T01:34:31.106Z,29.18
2023-05-04T01:35:31.099Z,29.38
2023-05-04T01:36:31.104Z,29.34
2023-05-04T01:37:31.091Z,29.41
2023-05-04T01:38:31.117Z,29.44
2023-05-04T01:39:31.116Z,29.48
2023-05-04T01:40:31.136Z,29.47
2023-05-04T01:41:31.145Z,29.50
2023-05-04T01:42:31.155Z,29.46
2023-05-04T01:43:31.155Z,29.42
2023-05-04T01:44:31.159Z,29.37
2023-05-04T01:45:31.173Z,29.40
2023-05-04T01:46:31.183Z,29.45
2023-05-04T01:47:31.160Z,29.45
2023-05-04T01:48:31.183Z,29.46
2023-05-04T01:49:31.165Z,29.44
2023-05-04T01:50:31.149Z,29.41
2023-05-04T01:51:31.145Z,29.43
2023-05-04T01:52:31.182Z,29.44
2023-05-04T01:53:31.173Z,29.45
2023-05-04T01:54:31.206Z,29.44
2023-05-04T01:55:31.169Z,29.45
2023-05-04T01:56:31.185Z,29.46
2023-05-04T01:57:31.155Z,29.43
2023-05-04T01:58:31.192Z,29.39
2023-05-04T01:59:31.179Z,29.41
2023-05-04T02:00:31.238Z,29.40
2023-05-04T02:01:31.246Z,29.42
2023-05-04T02:02:31.255Z,29.40
2023-05-04T02:03:31.362Z,29.40
2023-05-04T02:04:31.224Z,29.38
2023-05-04T02:05:31.205Z,29.36
2023-05-04T02:06:31.205Z,29.36
2023-05-04T02:07:31.218Z,29.34
2023-05-04T02:08:31.238Z,29.35
2023-05-04T02:09:31.178Z,29.37
2023-05-04T02:10:31.178Z,29.25
2023-05-04T02:11:31.218Z,29.27
2023-05-04T02:12:31.238Z,29.26
2023-05-04T02:13:31.227Z,29.28
2023-05-04T02:14:31.248Z,29.29
2023-05-04T02:15:31.248Z,29.25
2023-05-04T02:16:31.299Z,29.26
2023-05-04T02:17:31.341Z,29.27
2023-05-04T02:18:31.298Z,29.30
2023-05-04T02:19:31.308Z,29.28
2023-05-04T02:20:31.317Z,29.27
2023-05-04T02:21:31.294Z,29.23
2023-05-04T02:22:31.315Z,29.27
2023-05-04T02:23:31.304Z,29.22
2023-05-04T02:24:31.349Z,29.11
2023-05-04T02:25:31.390Z,29.17
2023-05-04T02:26:31.393Z,29.13
2023-05-04T02:27:31.609Z,29.12
2023-05-04T02:28:31.385Z,29.10
2023-05-04T02:29:31.417Z,29.15
2023-05-04T02:30:31.382Z,29.16
2023-05-04T02:31:31.471Z,29.18
2023-05-04T02:32:31.479Z,29.16
2023-05-04T02:33:31.480Z,29.15
2023-05-04T02:34:31.483Z,29.17
2023-05-04T02:35:31.503Z,29.23
2023-05-04T02:36:31.514Z,29.18
2023-05-04T02:37:31.520Z,29.19
2023-05-04T02:38:31.527Z,29.18
2023-05-04T02:39:31.572Z,29.17
2023-05-04T02:40:31.534Z,29.15
2023-05-04T02:41:31.556Z,29.19
2023-05-04T02:42:31.581Z,29.13
2023-05-04T02:43:31.592Z,29.13
2023-05-04T02:44:31.601Z,29.15
2023-05-04T02:45:31.622Z,29.15
2023-05-04T02:46:31.617Z,29.13
2023-05-04T02:47:31.662Z,29.11
2023-05-04T02:48:31.655Z,29.10
2023-05-04T02:49:31.688Z,29.14
2023-05-04T02:50:31.729Z,29.12
2023-05-04T02:51:31.746Z,29.15
2023-05-04T02:52:31.852Z,29.12
2023-05-04T02:53:31.870Z,29.10
2023-05-04T02:54:31.872Z,29.14
2023-05-04T02:55:31.949Z,29.11
2023-05-04T02:56:31.980Z,29.04
2023-05-04T02:57:32.026Z,29.04
2023-05-04T02:58:32.063Z,29.04
2023-05-04T02:59:32.120Z,29.06
2023-05-04T03:00:32.161Z,29.04
2023-05-04T03:01:34.636Z,29.03
2023-05-04T03:02:32.462Z,29.06
2023-05-04T03:03:32.479Z,29.02
2023-05-04T03:04:32.665Z,29.05
2023-05-04T03:05:32.535Z,29.01
2023-05-04T03:06:32.574Z,28.97
2023-05-04T03:07:32.629Z,28.97
2023-05-04T03:08:32.650Z,28.92
2023-05-04T03:09:32.720Z,28.94
2023-05-04T03:10:32.704Z,28.94
2023-05-04T03:11:32.753Z,28.96
2023-05-04T03:12:32.857Z,28.95
2023-05-04T03:13:32.805Z,28.94
2023-05-04T03:14:32.836Z,28.97
2023-05-04T03:15:32.866Z,28.98
2023-05-04T03:16:32.958Z,28.96
2023-05-04T03:17:32.999Z,28.96
2023-05-04T03:19:51.946Z,29.00
2023-05-04T03:20:51.954Z,28.95
2023-05-04T03:21:51.964Z,28.92
2023-05-04T03:22:51.966Z,28.87
2023-05-04T03:23:52.006Z,28.85
2023-05-04T03:24:52.009Z,28.87
2023-05-04T03:25:52.050Z,28.89
2023-05-04T03:26:52.034Z,28.86
2023-05-04T03:27:52.083Z,28.81
2023-05-04T03:28:52.062Z,28.79
2023-05-04T03:29:52.099Z,28.74
2023-05-04T03:30:52.121Z,28.72
2023-05-04T03:31:52.141Z,28.69
2023-05-04T03:32:52.190Z,28.58
2023-05-04T03:33:52.134Z,28.72
2023-05-04T03:34:52.170Z,28.66
2023-05-04T03:35:52.147Z,28.73
2023-05-04T03:36:52.195Z,28.70
2023-05-04T03:37:52.159Z,28.80
2023-05-04T03:38:52.166Z,28.78
2023-05-04T03:39:52.184Z,28.81
2023-05-04T03:40:52.218Z,28.81
2023-05-04T03:41:52.254Z,28.79
2023-05-04T03:42:52.347Z,28.79
2023-05-04T03:43:52.266Z,28.80
2023-05-04T03:44:52.292Z,28.78
2023-05-04T03:45:52.301Z,28.75
2023-05-04T03:46:52.332Z,28.75
2023-05-04T03:47:52.366Z,28.75
2023-05-04T03:48:52.351Z,28.74
2023-05-04T03:49:52.392Z,28.73
2023-05-04T03:50:52.397Z,28.70
2023-05-04T03:51:52.413Z,28.68
2023-05-04T03:52:52.398Z,28.75
2023-05-04T03:53:52.398Z,28.59
2023-05-04T03:54:52.470Z,28.59
2023-05-04T03:55:52.482Z,28.43
2023-05-04T03:56:52.567Z,28.44
2023-05-04T03:57:52.641Z,28.44
2023-05-04T03:58:52.703Z,28.44
2023-05-04T03:59:52.740Z,28.50
2023-05-04T04:00:52.843Z,28.52
2023-05-04T04:01:52.913Z,28.55
2023-05-04T04:02:53.075Z,28.55
2023-05-04T04:03:53.083Z,28.57
2023-05-04T04:04:53.110Z,28.61
2023-05-04T04:05:53.127Z,28.53
2023-05-04T04:06:53.170Z,28.50
2023-05-04T04:07:53.278Z,28.54
2023-05-04T04:08:53.344Z,28.54
2023-05-04T04:09:53.366Z,28.46
2023-05-04T04:10:53.413Z,28.46
2023-05-04T04:11:53.505Z,28.47
2023-05-04T04:12:53.586Z,28.44
2023-05-04T04:13:53.622Z,28.40
2023-05-04T04:14:53.682Z,28.38
2023-05-04T04:15:53.782Z,28.42
2023-05-04T04:16:53.820Z,28.41
2023-05-04T04:17:53.928Z,28.46
2023-05-04T04:18:53.918Z,28.43
2023-05-04T04:19:53.974Z,28.41
2023-05-04T04:20:54.034Z,28.40
2023-05-04T04:21:54.084Z,28.39
2023-05-04T04:22:54.176Z,28.38
2023-05-04T04:23:54.225Z,28.38
2023-05-04T04:24:54.291Z,28.33
2023-05-04T04:25:54.384Z,28.27
2023-05-04T04:26:54.479Z,28.30
2023-05-04T04:27:54.449Z,28.44
2023-05-04T04:28:54.509Z,28.41
2023-05-04T04:29:54.562Z,28.42
2023-05-04T04:30:54.647Z,28.43
2023-05-04T04:31:54.814Z,28.44
2023-05-04T04:32:54.800Z,28.41
2023-05-04T04:33:54.840Z,28.44
2023-05-04T04:34:54.890Z,28.43
2023-05-04T04:35:54.968Z,28.43
2023-05-04T04:36:55.002Z,28.37
2023-05-04T04:37:55.062Z,28.37
2023-05-04T04:38:55.128Z,28.35
2023-05-04T04:39:55.199Z,28.25
2023-05-04T04:40:55.232Z,28.30
2023-05-04T04:41:55.285Z,28.33
2023-05-04T04:42:55.374Z,28.31
2023-05-04T04:43:55.456Z,27.90
2023-05-04T04:44:55.506Z,27.86
2023-05-04T04:45:55.554Z,27.80
2023-05-04T04:46:55.664Z,27.81
2023-05-04T04:47:55.755Z,27.91
2023-05-04T04:48:55.793Z,28.01
2023-05-04T04:49:55.882Z,28.08
2023-05-04T04:50:55.976Z,28.02
2023-05-04T04:51:56.022Z,28.00
2023-05-04T04:52:56.153Z,28.07
2023-05-04T04:53:56.222Z,28.14
2023-05-04T04:54:56.316Z,28.21
2023-05-04T04:55:56.373Z,28.22
2023-05-04T04:56:56.455Z,28.16
2023-05-04T04:57:56.572Z,28.23
2023-05-04T04:58:56.668Z,28.29
2023-05-04T04:59:56.720Z,28.33
2023-05-04T05:01:03.796Z,28.31
2023-05-04T05:01:56.787Z,28.34
2023-05-04T05:02:56.901Z,28.34
2023-05-04T05:03:56.850Z,28.28
2023-05-04T05:04:56.945Z,28.25
2023-05-04T05:05:56.906Z,28.26
2023-05-04T05:06:56.935Z,28.20
2023-05-04T05:07:56.952Z,28.18
2023-05-04T05:08:57.001Z,28.16
2023-05-04T05:09:57.008Z,28.35
2023-05-04T05:10:57.003Z,28.27
2023-05-04T05:11:57.029Z,28.25
2023-05-04T05:12:57.117Z,28.17
2023-05-04T05:13:57.084Z,28.14
2023-05-04T05:14:57.132Z,28.12
2023-05-04T05:15:57.118Z,28.15
2023-05-04T05:16:57.257Z,28.14
2023-05-04T05:17:57.419Z,28.17
2023-05-04T05:18:57.191Z,28.22
2023-05-04T05:19:57.234Z,28.27
2023-05-04T05:20:57.249Z,28.25
2023-05-04T05:21:57.274Z,28.31
2023-05-04T05:22:57.278Z,28.41
2023-05-04T05:23:57.334Z,28.39
2023-05-04T05:24:57.418Z,28.39
2023-05-04T05:25:57.380Z,28.34
2023-05-04T05:26:57.414Z,28.44
2023-05-04T05:27:57.493Z,28.44
2023-05-04T05:28:57.495Z,28.37
2023-05-04T05:29:57.708Z,28.38
2023-05-04T05:30:57.659Z,28.37
2023-05-04T05:31:57.679Z,28.40
2023-05-04T05:32:57.823Z,28.36
2023-05-04T05:33:57.828Z,28.90
2023-05-04T05:34:58.233Z,29.90
2023-05-04T05:35:57.891Z,30.34
2023-05-04T05:36:57.932Z,30.35
2023-05-04T05:37:57.976Z,30.99
2023-05-04T05:38:58.101Z,31.03
2023-05-04T05:39:58.113Z,30.93
2023-05-04T05:40:58.202Z,30.76
2023-05-04T05:41:58.252Z,30.82
2023-05-04T05:42:58.272Z,30.68
2023-05-04T05:43:58.327Z,31.23
2023-05-04T05:44:58.389Z,31.30
2023-05-04T05:46:05.763Z,31.31
2023-05-04T05:46:58.528Z,31.27
2023-05-04T05:47:58.539Z,31.08
2023-05-04T05:48:58.515Z,30.94
2023-05-04T05:49:58.556Z,30.94
2023-05-04T05:50:58.732Z,30.99
2023-05-04T05:51:58.644Z,30.98
2023-05-04T05:52:58.602Z,31.06
2023-05-04T05:53:58.622Z,30.92
2023-05-04T05:55:58.704Z,30.76
2023-05-04T05:56:58.713Z,31.04
2023-05-04T05:57:58.761Z,30.99
2023-05-04T05:58:58.746Z,30.94
2023-05-04T05:59:58.963Z,31.12
2023-05-04T06:00:58.792Z,31.67
2023-05-04T06:01:58.866Z,31.00
2023-05-04T06:02:58.904Z,31.14
2023-05-04T06:03:59.019Z,31.83
2023-05-04T06:04:58.934Z,31.47
2023-05-04T06:05:58.937Z,31.35
2023-05-04T06:06:58.976Z,30.83
2023-05-04T06:07:58.971Z,30.86
2023-05-04T06:08:59.012Z,30.82
2023-05-04T06:09:59.070Z,30.87
2023-05-04T06:10:59.235Z,30.98
2023-05-04T06:11:59.205Z,30.69
2023-05-04T06:12:59.260Z,30.60
2023-05-04T06:13:59.250Z,30.47
2023-05-04T06:14:59.337Z,30.34
2023-05-04T06:15:59.401Z,30.42
2023-05-04T06:16:59.365Z,30.45
2023-05-04T06:17:59.407Z,30.35
2023-05-04T06:18:59.392Z,30.50
2023-05-04T06:19:59.463Z,30.44
2023-05-04T06:20:59.627Z,30.26
2023-05-04T06:21:59.512Z,30.46
2023-05-04T06:22:59.564Z,30.43
2023-05-04T06:23:59.615Z,30.38
2023-05-04T06:25:03.708Z,30.32
2023-05-04T06:26:00.723Z,30.40
2023-05-04T06:26:59.757Z,30.27
2023-05-04T06:27:59.771Z,30.21
2023-05-04T06:28:59.814Z,30.28
2023-05-04T06:29:59.870Z,30.32
2023-05-04T06:30:59.890Z,30.34
2023-05-04T06:31:59.865Z,30.29
2023-05-04T06:32:59.961Z,30.13
2023-05-04T06:33:59.951Z,30.03
2023-05-04T06:34:59.975Z,30.08
2023-05-04T06:36:00.267Z,30.11
2023-05-04T06:37:00.010Z,30.14
2023-05-04T06:38:00.121Z,30.13
2023-05-04T06:39:00.127Z,29.99
2023-05-04T06:40:00.106Z,29.93
2023-05-04T06:41:00.436Z,29.97
2023-05-04T06:42:00.156Z,29.87
2023-05-04T06:43:00.175Z,29.86
2023-05-04T06:44:00.246Z,29.99
2023-05-04T06:45:00.241Z,29.99
2023-05-04T06:46:00.778Z,29.94
2023-05-04T06:47:00.331Z,29.95
2023-05-04T06:48:00.379Z,29.90
2023-05-04T06:49:00.364Z,29.86
2023-05-04T06:50:00.413Z,29.85
2023-05-04T06:51:02.863Z,29.86
2023-05-04T06:52:00.688Z,29.85
2023-05-04T06:53:01.681Z,29.82
2023-05-04T06:54:00.737Z,29.86
2023-05-04T06:55:00.739Z,29.76
2023-05-04T06:56:00.819Z,29.73
2023-05-04T06:57:00.790Z,29.79
2023-05-04T06:58:00.846Z,29.66
2023-05-04T06:59:00.875Z,29.65
2023-05-04T07:00:00.893Z,29.60
2023-05-04T07:01:00.930Z,29.64
2023-05-04T07:02:00.922Z,29.62
2023-05-04T07:03:00.962Z,29.65
2023-05-04T07:04:01.026Z,29.68
2023-05-04T07:05:01.051Z,29.63
2023-05-04T07:06:01.293Z,29.61
2023-05-04T07:07:01.068Z,29.61
2023-05-04T07:08:01.115Z,29.58
2023-05-04T07:09:01.152Z,29.51
2023-05-04T07:10:01.324Z,29.52
2023-05-04T07:11:01.235Z,29.49
2023-05-04T07:12:01.243Z,29.47
2023-05-04T07:13:01.288Z,29.48
2023-05-04T07:14:01.273Z,29.49
2023-05-04T07:15:01.296Z,29.50
2023-05-04T07:16:01.325Z,29.46
2023-05-04T07:17:01.764Z,29.47
2023-05-04T07:18:01.537Z,29.58
2023-05-04T07:19:01.424Z,29.52
2023-05-04T07:20:01.684Z,29.70
2023-05-04T07:21:16.338Z,29.62
2023-05-04T07:22:02.478Z,29.51
2023-05-04T07:23:01.483Z,29.43
2023-05-04T07:24:01.568Z,29.50
2023-05-04T07:25:01.561Z,29.41
2023-05-04T07:26:01.584Z,29.34
2023-05-04T07:27:01.679Z,29.34
2023-05-04T07:28:01.663Z,29.50
2023-05-04T07:29:01.690Z,29.45
2023-05-04T07:30:01.729Z,29.41
2023-05-04T07:31:01.765Z,29.38
2023-05-04T07:32:02.334Z,29.32
2023-05-04T07:33:01.887Z,29.37
2023-05-04T07:34:01.821Z,29.41
2023-05-04T07:35:02.771Z,29.42
2023-05-04T07:36:01.961Z,29.39
2023-05-04T07:37:01.900Z,29.42
2023-05-04T07:38:01.928Z,29.35
2023-05-04T07:39:01.960Z,29.38
2023-05-04T07:40:02.125Z,29.34
2023-05-04T07:41:02.001Z,29.33
2023-05-04T07:42:02.045Z,29.28
2023-05-04T07:43:02.076Z,29.20
2023-05-04T07:44:02.071Z,29.14
2023-05-04T07:45:02.127Z,29.07
2023-05-04T07:46:02.169Z,28.92
2023-05-04T07:47:02.145Z,28.94
2023-05-04T07:48:02.209Z,28.97
2023-05-04T07:49:02.194Z,28.97
2023-05-04T07:50:02.341Z,28.99
2023-05-04T07:51:02.262Z,28.98
2023-05-04T07:52:02.432Z,28.95
2023-05-04T07:53:02.344Z,28.97
2023-05-04T07:54:02.351Z,28.99
2023-05-04T07:55:02.387Z,28.84
2023-05-04T07:56:02.398Z,28.93
2023-05-04T07:57:02.467Z,28.81
2023-05-04T07:58:02.489Z,28.78
2023-05-04T07:59:02.474Z,28.83
2023-05-04T08:00:02.672Z,28.79
2023-05-04T08:01:02.574Z,28.76
2023-05-04T08:02:02.907Z,28.75
2023-05-04T08:03:02.703Z,28.79
2023-05-04T08:04:02.730Z,28.79
2023-05-04T08:05:02.742Z,28.82
2023-05-04T08:06:02.729Z,28.96
2023-05-04T08:07:02.787Z,28.94
2023-05-04T08:08:02.796Z,28.98
2023-05-04T08:09:02.843Z,28.99
2023-05-04T08:10:03.037Z,28.97
2023-05-04T08:11:12.314Z,28.99
2023-05-04T08:12:03.969Z,29.00
2023-05-04T08:13:02.969Z,29.01
2023-05-04T08:14:02.962Z,28.99
2023-05-04T08:15:03.140Z,28.99
2023-05-04T08:16:02.998Z,28.98
2023-05-04T08:17:03.321Z,29.00
2023-05-04T08:18:03.072Z,28.99
2023-05-04T08:19:03.061Z,28.98
2023-05-04T08:20:03.085Z,29.00
2023-05-04T08:21:03.075Z,29.04
2023-05-04T08:22:03.110Z,29.00
2023-05-04T08:23:03.117Z,29.01
2023-05-04T08:24:03.239Z,28.97
2023-05-04T08:25:03.288Z,29.01
2023-05-04T08:26:03.222Z,28.97
2023-05-04T08:27:08.077Z,28.99
2023-05-04T08:28:04.317Z,29.02
2023-05-04T08:29:03.258Z,28.99
2023-05-04T08:30:03.311Z,28.99
2023-05-04T08:31:03.276Z,28.98
2023-05-04T08:32:03.334Z,28.97
2023-05-04T08:33:03.352Z,28.99
2023-05-04T08:34:03.347Z,29.00
2023-05-04T08:35:03.522Z,28.98
2023-05-04T08:36:03.371Z,28.96
2023-05-04T08:37:03.413Z,28.98
2023-05-04T08:38:03.459Z,29.02
2023-05-04T08:39:03.572Z,28.97
2023-05-04T08:40:03.590Z,28.77
2023-05-04T08:41:03.648Z,28.68
2023-05-04T08:42:03.744Z,28.70
2023-05-04T08:43:04.276Z,28.82
2023-05-04T08:44:03.880Z,28.71
2023-05-04T08:45:04.137Z,28.77
2023-05-04T08:46:04.027Z,28.78
2023-05-04T08:47:04.068Z,28.83
2023-05-04T08:48:04.247Z,28.90
2023-05-04T08:49:04.189Z,28.91
2023-05-04T08:50:04.282Z,28.93
2023-05-04T08:51:04.553Z,28.94
2023-05-04T08:52:04.448Z,28.96
2023-05-04T08:53:04.489Z,28.98
2023-05-04T08:54:04.569Z,28.96
2023-05-04T08:55:04.725Z,28.96
2023-05-04T08:56:04.808Z,28.97
2023-05-04T08:57:04.796Z,28.97
2023-05-04T08:58:04.848Z,28.96
2023-05-04T08:59:04.965Z,28.97
2023-05-04T09:00:05.006Z,28.99
2023-05-04T09:01:05.125Z,28.96
2023-05-04T09:02:05.465Z,28.91
2023-05-04T09:03:05.255Z,28.90
2023-05-04T09:04:05.438Z,28.91
2023-05-04T09:05:05.506Z,28.92
2023-05-04T09:06:05.432Z,28.92
2023-05-04T09:07:05.506Z,28.88
2023-05-04T09:08:05.618Z,28.88
2023-05-04T09:09:05.668Z,28.90
2023-05-04T09:10:05.718Z,28.89
2023-05-04T09:11:05.796Z,28.86
2023-05-04T09:12:06.386Z,28.89
2023-05-04T09:13:05.940Z,28.85
2023-05-04T09:14:05.994Z,28.86
2023-05-04T09:15:06.476Z,28.83
2023-05-04T09:16:06.122Z,28.83
2023-05-04T09:17:06.266Z,28.87
2023-05-04T09:18:06.382Z,28.85
2023-05-04T09:19:06.404Z,28.88
2023-05-04T09:20:06.423Z,28.85
2023-05-04T09:21:06.569Z,28.82
2023-05-04T09:22:06.601Z,28.83
2023-05-04T09:23:06.692Z,28.81
2023-05-04T09:24:06.741Z,28.83
2023-05-04T09:25:06.903Z,28.83
2023-05-04T09:26:06.875Z,28.82
2023-05-04T09:27:06.943Z,28.84
2023-05-04T09:28:07.031Z,28.85
2023-05-04T09:29:07.132Z,28.83
2023-05-04T09:30:07.143Z,28.85
2023-05-04T09:31:07.244Z,28.82
2023-05-04T09:32:07.332Z,28.83
2023-05-04T09:33:07.833Z,28.83
2023-05-04T09:34:07.459Z,28.83
2023-05-04T09:35:07.558Z,28.85
2023-05-04T09:36:07.587Z,28.75
2023-05-04T09:37:07.635Z,28.74
2023-05-04T09:38:07.684Z,28.79
2023-05-04T09:39:09.037Z,28.82
2023-05-04T09:40:07.779Z,28.74
2023-05-04T09:41:07.790Z,28.72
2023-05-04T09:42:07.845Z,28.69
2023-05-04T09:43:07.834Z,28.72
2023-05-04T09:44:07.842Z,28.72
2023-05-04T09:45:08.074Z,28.70
2023-05-04T09:46:07.907Z,28.74
2023-05-04T09:47:07.868Z,28.76
2023-05-04T09:48:07.957Z,28.80
2023-05-04T09:49:07.952Z,28.81
2023-05-04T09:50:07.955Z,28.82
2023-05-04T09:51:07.950Z,28.84
2023-05-04T09:52:07.956Z,28.82
2023-05-04T09:53:08.007Z,28.83
2023-05-04T09:54:08.049Z,28.80
2023-05-04T09:55:08.046Z,28.81
2023-05-04T09:56:08.397Z,28.85
2023-05-04T09:57:08.069Z,28.80
2023-05-04T09:58:08.337Z,28.81
2023-05-04T09:59:08.072Z,28.81
2023-05-04T10:00:08.108Z,28.83
2023-05-04T10:01:08.175Z,28.78
2023-05-04T10:02:21.131Z,28.77
2023-05-04T10:03:09.219Z,28.77
2023-05-04T10:04:08.178Z,28.79
2023-05-04T10:05:08.381Z,28.84
2023-05-04T10:06:08.182Z,28.82
2023-05-04T10:07:08.231Z,28.83
2023-05-04T10:08:08.245Z,28.84
2023-05-04T10:09:08.257Z,28.81
2023-05-04T10:10:08.290Z,28.81
2023-05-04T10:11:08.295Z,28.85
2023-05-04T10:12:08.316Z,28.85
2023-05-04T10:13:08.907Z,28.87
2023-05-04T10:14:08.482Z,28.90
2023-05-04T10:15:08.493Z,28.94
2023-05-04T10:16:08.665Z,28.93
2023-05-04T10:17:08.637Z,28.93
2023-05-04T10:18:08.769Z,28.88
2023-05-04T10:19:08.798Z,28.88
2023-05-04T10:20:08.867Z,28.90
2023-05-04T10:21:08.901Z,28.91
2023-05-04T10:22:09.014Z,28.93
2023-05-04T10:23:09.343Z,28.89
2023-05-04T10:24:09.139Z,28.91
2023-05-04T10:25:09.221Z,28.93
2023-05-04T10:26:09.268Z,28.92
2023-05-04T10:27:09.280Z,28.89
2023-05-04T10:28:09.848Z,28.85
2023-05-04T10:29:09.450Z,28.84
2023-05-04T10:30:09.545Z,28.82
2023-05-04T10:31:09.572Z,28.84
2023-05-04T10:32:09.672Z,28.83
2023-05-04T10:33:09.854Z,28.85
2023-05-04T10:34:09.776Z,28.86
2023-05-04T10:35:09.865Z,28.87
2023-05-04T10:36:09.943Z,28.86
2023-05-04T10:37:10.013Z,28.77
2023-05-04T10:38:10.315Z,28.75
2023-05-04T10:39:10.164Z,28.78
2023-05-04T10:40:10.226Z,28.80
2023-05-04T10:41:10.295Z,28.76
2023-05-04T10:42:10.348Z,28.74
2023-05-04T10:43:10.836Z,28.76
2023-05-04T10:44:10.460Z,28.78
2023-05-04T10:45:10.545Z,28.69
2023-05-04T10:46:10.748Z,28.74
2023-05-04T10:47:10.716Z,28.71
2023-05-04T10:48:10.886Z,28.62
2023-05-04T10:49:10.814Z,28.62
2023-05-04T10:50:10.886Z,28.61
2023-05-04T10:51:10.971Z,28.57
2023-05-04T10:52:11.070Z,28.55
2023-05-04T10:53:11.150Z,28.60
2023-05-04T10:54:11.196Z,28.60
2023-05-04T10:55:11.261Z,28.56
2023-05-04T10:56:11.372Z,28.59
2023-05-04T10:57:11.402Z,28.59
2023-05-04T10:58:11.872Z,28.58
2023-05-04T10:59:11.535Z,28.57
2023-05-04T11:00:12.365Z,28.54
2023-05-04T11:01:11.702Z,28.53
2023-05-04T11:02:11.696Z,28.49
2023-05-04T11:03:11.823Z,28.49
2023-05-04T11:04:11.843Z,28.50
2023-05-04T11:05:11.870Z,28.44
2023-05-04T11:06:11.938Z,28.46
2023-05-04T11:07:12.026Z,28.48
2023-05-04T11:08:12.625Z,28.24
2023-05-04T11:09:12.161Z,28.24
2023-05-04T11:10:12.214Z,28.31
2023-05-04T11:11:12.283Z,28.29
2023-05-04T11:12:12.370Z,28.27
2023-05-04T11:13:12.509Z,28.28
2023-05-04T11:14:12.482Z,28.33
2023-05-04T11:15:12.576Z,28.37
2023-05-04T11:16:12.652Z,28.40
2023-05-04T11:17:23.877Z,28.36
2023-05-04T11:18:13.715Z,28.38
2023-05-04T11:19:12.721Z,28.35
2023-05-04T11:20:12.696Z,28.24
2023-05-04T11:21:12.672Z,27.80
2023-05-04T11:22:12.695Z,28.00
2023-05-04T11:23:12.750Z,28.17
2023-05-04T11:24:12.755Z,28.14
2023-05-04T11:25:12.745Z,28.25
2023-05-04T11:26:12.810Z,28.34
2023-05-04T11:27:12.787Z,27.82
2023-05-04T11:28:14.595Z,27.52
2023-05-04T11:29:13.415Z,27.59
2023-05-04T11:30:12.950Z,27.60
2023-05-04T11:31:13.050Z,27.56
2023-05-04T11:32:13.085Z,27.57
2023-05-04T11:33:13.118Z,27.56
2023-05-04T11:34:13.370Z,27.43
2023-05-04T11:35:13.278Z,27.38
2023-05-04T11:36:13.378Z,27.52
2023-05-04T11:37:13.436Z,27.55
2023-05-04T11:38:13.437Z,27.43
2023-05-04T11:39:13.561Z,27.27
2023-05-04T11:40:13.646Z,27.20
2023-05-04T11:41:13.681Z,27.32
2023-05-04T11:42:13.730Z,27.27
2023-05-04T11:43:13.791Z,27.26
2023-05-04T11:44:13.855Z,27.25
2023-05-04T11:45:13.972Z,27.23
2023-05-04T11:46:14.035Z,27.28
2023-05-04T11:47:14.105Z,27.31
2023-05-04T11:48:14.715Z,27.29
2023-05-04T11:49:14.237Z,27.35
2023-05-04T11:50:14.406Z,27.33
2023-05-04T11:51:14.324Z,27.09
2023-05-04T11:52:14.388Z,26.88
2023-05-04T11:53:14.465Z,26.73
2023-05-04T11:54:14.498Z,26.59
2023-05-04T11:55:14.577Z,26.64
2023-05-04T11:56:14.658Z,26.66
2023-05-04T11:57:14.674Z,26.67
2023-05-04T11:58:14.766Z,26.65
2023-05-04T11:59:14.820Z,26.67
2023-05-04T12:00:14.880Z,26.80
2023-05-04T12:01:14.946Z,26.74
2023-05-04T12:02:15.000Z,26.80
2023-05-04T12:03:15.250Z,26.35
2023-05-04T12:04:15.192Z,26.71
2023-05-04T12:05:15.248Z,26.64
2023-05-04T12:06:15.221Z,26.61
2023-05-04T12:07:15.275Z,26.36
2023-05-04T12:08:15.476Z,26.42
2023-05-04T12:09:15.426Z,26.60
2023-05-04T12:10:15.506Z,26.30
2023-05-04T12:11:15.558Z,26.21
2023-05-04T12:12:15.624Z,26.21
2023-05-04T12:13:15.774Z,26.03
2023-05-04T12:14:15.733Z,25.96
2023-05-04T12:15:15.878Z,25.84
2023-05-04T12:16:15.882Z,25.90
2023-05-04T12:17:15.901Z,25.99
2023-05-04T12:18:15.968Z,26.06
2023-05-04T12:19:16.054Z,26.09
2023-05-04T12:20:16.082Z,26.20
2023-05-04T12:21:16.152Z,26.37
2023-05-04T12:22:16.211Z,26.25
2023-05-04T12:23:16.305Z,26.02
2023-05-04T12:24:16.374Z,26.00
2023-05-04T12:25:16.410Z,25.90
2023-05-04T12:26:19.581Z,25.91
2023-05-04T12:27:16.503Z,25.89
2023-05-04T12:28:16.503Z,25.48
2023-05-04T12:29:16.516Z,25.33
2023-05-04T12:30:16.534Z,25.49
2023-05-04T12:31:16.566Z,25.66
2023-05-04T12:32:16.560Z,25.69
2023-05-04T12:33:16.529Z,25.70
2023-05-04T12:34:16.555Z,25.65
2023-05-04T12:35:16.548Z,29.80
2023-05-04T12:36:16.596Z,29.76
2023-05-04T12:37:16.620Z,32.46
2023-05-04T12:38:16.580Z,32.09
2023-05-04T12:39:16.619Z,32.67
2023-05-04T12:40:27.665Z,31.57
2023-05-04T12:41:17.658Z,29.98
2023-05-04T12:42:16.699Z,29.94
2023-05-04T12:43:17.467Z,31.08
2023-05-04T12:44:16.718Z,37.47
2023-05-04T12:45:16.720Z,37.18
2023-05-04T12:46:16.744Z,34.47
2023-05-04T12:47:16.842Z,34.29
2023-05-04T12:48:16.699Z,34.28
2023-05-04T12:49:16.764Z,35.41
2023-05-04T12:50:16.798Z,39.12
2023-05-04T12:51:16.834Z,39.53
2023-05-04T12:52:16.915Z,39.82
2023-05-04T12:53:16.964Z,39.61
2023-05-04T12:54:16.992Z,39.69
2023-05-04T12:55:17.096Z,40.27